createdAt,value
2019-05-15T00:00:38.432Z,2.00
2019-05-15T00:01:40.684Z,2.30
2019-05-15T00:02:38.675Z,1.90
2019-05-15T00:03:39.212Z,1.70
2019-05-15T00:04:38.365Z,2.00
2019-05-15T00:05:39.026Z,1.80
2019-05-15T00:06:36.292Z,2.00
2019-05-15T00:07:38.808Z,1.90
2019-05-15T00:08:38.450Z,2.10
2019-05-15T00:09:39.230Z,2.20
2019-05-15T00:10:39.016Z,1.80
2019-05-15T00:11:38.771Z,2.00
2019-05-15T00:12:36.225Z,1.70
2019-05-15T00:13:38.643Z,2.00
2019-05-15T00:14:38.714Z,1.90
2019-05-15T00:15:36.193Z,1.80
2019-05-15T00:16:38.415Z,1.70
2019-05-15T00:17:36.169Z,1.90
2019-05-15T00:18:36.157Z,2.00
2019-05-15T00:19:36.150Z,1.80
2019-05-15T00:20:36.146Z,2.40
2019-05-15T00:21:38.188Z,2.40
2019-05-15T00:22:38.709Z,2.10
2019-05-15T00:23:38.549Z,2.00
2019-05-15T00:24:38.177Z,2.20
2019-05-15T00:25:36.080Z,2.20
2019-05-15T00:26:38.371Z,2.50
2019-05-15T00:27:38.317Z,2.70
2019-05-15T00:28:36.054Z,2.40
2019-05-15T00:29:38.206Z,2.80
2019-05-15T00:30:38.482Z,2.50
2019-05-15T00:31:38.650Z,2.30
2019-05-15T00:32:35.999Z,2.50
2019-05-15T00:33:36.007Z,2.50
2019-05-15T00:34:37.907Z,3.40
2019-05-15T00:35:35.970Z,2.90
2019-05-15T00:36:38.090Z,2.40
2019-05-15T00:37:38.413Z,2.90
2019-05-15T00:38:35.942Z,2.50
2019-05-15T00:39:35.930Z,2.50
2019-05-15T00:40:38.816Z,2.40
2019-05-15T00:41:48.341Z,2.70
2019-05-15T00:42:38.340Z,2.60
2019-05-15T00:43:38.206Z,2.40
2019-05-15T00:44:35.907Z,2.70
2019-05-15T00:45:38.303Z,2.70
2019-05-15T00:46:38.280Z,2.20
2019-05-15T00:47:35.830Z,2.50
2019-05-15T00:48:35.819Z,2.60
2019-05-15T00:49:38.082Z,2.40
2019-05-15T00:50:35.840Z,2.40
2019-05-15T00:51:35.789Z,2.60
2019-05-15T00:52:35.781Z,2.70
2019-05-15T00:53:35.766Z,2.50
2019-05-15T00:54:35.751Z,2.30
2019-05-15T00:55:37.869Z,2.40
2019-05-15T00:56:35.778Z,2.40
2019-05-15T00:57:35.723Z,2.20
2019-05-15T00:58:35.746Z,2.20
2019-05-15T00:59:35.711Z,2.40
2019-05-15T01:00:38.041Z,2.40
2019-05-15T01:01:38.016Z,2.30
2019-05-15T01:02:35.701Z,2.20
2019-05-15T01:03:35.654Z,2.30
2019-05-15T01:04:35.640Z,2.50
2019-05-15T01:05:35.637Z,2.50
2019-05-15T01:06:35.622Z,2.20
2019-05-15T01:07:35.615Z,2.60
2019-05-15T01:08:35.638Z,2.70
2019-05-15T01:09:35.589Z,2.50
2019-05-15T01:10:38.321Z,2.60
2019-05-15T01:11:37.960Z,2.50
2019-05-15T03:18:09.857Z,3.20
2019-05-15T03:18:31.712Z,3.10
2019-05-15T03:19:31.702Z,3.20
2019-05-15T03:20:31.694Z,2.90
2019-05-15T03:21:31.710Z,2.40
2019-05-15T03:22:31.671Z,2.70
2019-05-15T03:23:31.658Z,3.40
2019-05-15T03:24:31.650Z,3.30
2019-05-15T03:25:31.677Z,3.10
2019-05-15T03:26:31.633Z,3.00
2019-05-15T03:27:34.762Z,3.10
2019-05-15T03:28:31.607Z,3.10
2019-05-15T03:29:31.601Z,3.00
2019-05-15T03:30:35.166Z,3.50
2019-05-15T03:31:50.864Z,3.30
2019-05-15T03:32:42.526Z,2.80
2019-05-15T03:33:36.554Z,3.10
2019-05-15T03:34:38.127Z,3.00
2019-05-15T03:35:33.421Z,3.20
2019-05-15T03:36:32.259Z,3.10
2019-05-15T03:37:33.507Z,3.10
2019-05-15T03:38:31.536Z,3.00
2019-05-15T03:39:31.499Z,2.60
2019-05-15T03:40:31.468Z,2.80
2019-05-15T03:41:31.466Z,2.90
2019-05-15T03:42:31.484Z,3.30
2019-05-15T03:43:31.464Z,3.50
2019-05-15T03:44:31.439Z,2.90
2019-05-15T03:45:31.412Z,2.70
2019-05-15T03:46:31.404Z,2.60
2019-05-15T03:47:31.441Z,2.90
2019-05-15T03:48:31.386Z,3.30
2019-05-15T03:49:31.368Z,3.10
2019-05-15T03:50:31.370Z,2.70
2019-05-15T03:51:31.363Z,2.60
2019-05-15T03:52:31.337Z,3.00
2019-05-15T03:53:31.355Z,3.00
2019-05-15T03:54:31.316Z,3.00
2019-05-15T03:55:31.301Z,2.80
2019-05-15T03:56:31.332Z,3.20
2019-05-15T03:57:31.279Z,2.80
2019-05-15T03:58:31.297Z,3.10
2019-05-15T03:59:31.293Z,2.40
2019-05-15T04:00:31.248Z,2.70
2019-05-15T04:01:38.537Z,2.50
2019-05-15T04:02:32.224Z,2.70
2019-05-15T04:03:31.229Z,2.70
2019-05-15T04:04:31.234Z,2.30
2019-05-15T04:05:31.223Z,2.50
2019-05-15T04:06:31.187Z,3.10
2019-05-15T04:07:31.214Z,2.70
2019-05-15T04:08:31.156Z,2.80
2019-05-15T04:09:31.179Z,2.90
2019-05-15T04:10:31.148Z,2.80
2019-05-15T04:11:31.165Z,2.90
2019-05-15T04:12:31.113Z,2.90
2019-05-15T04:13:31.142Z,2.70
2019-05-15T04:14:31.115Z,3.00
2019-05-15T04:15:31.080Z,2.80
2019-05-15T04:16:31.097Z,2.70
2019-05-15T04:17:31.062Z,2.90
2019-05-15T04:18:31.082Z,2.70
2019-05-15T04:19:31.034Z,2.90
2019-05-15T04:20:31.066Z,3.20
2019-05-15T04:21:31.060Z,2.60
2019-05-15T04:22:31.020Z,2.80
2019-05-15T04:23:31.023Z,2.70
2019-05-15T04:24:30.984Z,2.90
2019-05-15T04:25:30.965Z,3.20
2019-05-15T04:26:30.972Z,2.80
2019-05-15T04:27:30.976Z,2.80
2019-05-15T04:28:30.936Z,3.40
2019-05-15T04:29:30.928Z,2.70
2019-05-15T04:30:31.095Z,2.80
2019-05-15T04:31:49.806Z,3.10
2019-05-15T04:32:31.925Z,3.00
2019-05-15T04:33:30.896Z,3.00
2019-05-15T04:34:30.869Z,2.90
2019-05-15T04:35:30.862Z,2.80
2019-05-15T04:36:30.876Z,2.80
2019-05-15T04:37:30.863Z,2.60
2019-05-15T04:38:30.823Z,2.70
2019-05-15T04:39:30.871Z,2.70
2019-05-15T04:40:30.805Z,2.40
2019-05-15T04:41:30.795Z,2.50
2019-05-15T04:42:30.787Z,2.60
2019-05-15T04:43:39.676Z,2.50
2019-05-15T04:44:31.787Z,2.80
2019-05-15T04:45:34.780Z,2.40
2019-05-15T04:46:30.738Z,2.90
2019-05-15T04:47:30.724Z,2.50
2019-05-15T04:48:30.761Z,2.50
2019-05-15T04:49:30.735Z,2.40
2019-05-15T04:50:30.689Z,2.50
2019-05-15T04:51:30.775Z,2.80
2019-05-15T04:52:30.885Z,2.50
2019-05-15T04:53:33.107Z,2.40
2019-05-15T04:54:30.646Z,2.60
2019-05-15T04:55:30.673Z,2.60
2019-05-15T04:56:30.665Z,2.80
2019-05-15T04:57:34.046Z,2.40
2019-05-15T04:58:30.611Z,2.70
2019-05-15T04:59:30.630Z,2.30
2019-05-15T05:00:30.578Z,2.70
2019-05-15T05:01:30.606Z,2.40
2019-05-15T05:02:32.170Z,2.50
2019-05-15T05:03:34.136Z,2.30
2019-05-15T05:04:30.546Z,2.60
2019-05-15T05:05:30.558Z,2.20
2019-05-15T05:06:30.561Z,2.50
2019-05-15T05:07:30.920Z,2.50
2019-05-15T05:08:30.523Z,2.40
2019-05-15T05:09:30.482Z,2.40
2019-05-15T05:10:30.525Z,2.50
2019-05-15T05:11:30.462Z,3.00
2019-05-15T05:12:30.497Z,2.90
2019-05-15T05:13:30.442Z,2.90
2019-05-15T05:14:30.477Z,2.80
2019-05-15T05:15:30.433Z,3.20
2019-05-15T05:16:30.515Z,3.00
2019-05-15T05:17:30.435Z,3.10
2019-05-15T05:18:30.519Z,2.80
2019-05-15T05:19:30.406Z,3.00
2019-05-15T05:20:30.398Z,2.70
2019-05-15T05:21:30.388Z,2.90
2019-05-15T05:22:30.368Z,2.70
2019-05-15T05:23:30.392Z,2.90
2019-05-15T05:24:30.363Z,2.90
2019-05-15T05:25:30.308Z,2.30
2019-05-15T05:26:30.333Z,2.60
2019-05-15T05:27:30.312Z,2.80
2019-05-15T05:28:30.308Z,2.50
2019-05-15T05:29:30.314Z,2.50
2019-05-15T05:30:30.247Z,2.70
2019-05-15T05:31:30.254Z,2.40
2019-05-15T05:32:34.852Z,2.20
2019-05-15T05:33:31.210Z,2.40
2019-05-15T05:34:30.211Z,2.50
2019-05-15T05:35:30.247Z,2.70
2019-05-15T05:36:30.193Z,2.60
2019-05-15T05:37:30.198Z,2.40
2019-05-15T05:38:30.164Z,2.70
2019-05-15T05:39:32.439Z,2.40
2019-05-15T05:40:31.631Z,2.40
2019-05-15T05:41:32.129Z,1.90
2019-05-15T05:42:32.766Z,2.30
2019-05-15T05:43:30.176Z,2.40
2019-05-15T05:44:30.111Z,2.60
2019-05-15T05:45:30.100Z,2.60
2019-05-15T05:46:30.078Z,2.70
2019-05-15T05:47:30.117Z,2.60
2019-05-15T05:48:30.060Z,2.70
2019-05-15T05:49:30.081Z,2.60
2019-05-15T05:50:30.052Z,2.40
2019-05-15T05:51:30.100Z,2.50
2019-05-15T05:52:30.049Z,2.50
2019-05-15T05:53:30.024Z,2.80
2019-05-15T05:54:29.989Z,2.80
2019-05-15T05:55:30.004Z,2.80
2019-05-15T05:56:29.973Z,2.80
2019-05-15T05:57:29.998Z,2.80
2019-05-15T05:58:29.985Z,2.80
2019-05-15T05:59:29.950Z,2.70
2019-05-15T06:00:29.917Z,2.50
2019-05-15T06:01:29.930Z,2.50
2019-05-15T06:02:43.821Z,3.00
2019-05-15T06:03:30.968Z,2.50
2019-05-15T06:04:30.021Z,2.60
2019-05-15T06:05:29.914Z,2.20
2019-05-15T06:06:29.987Z,2.90
2019-05-15T06:07:29.894Z,2.60
2019-05-15T06:08:29.896Z,2.90
2019-05-15T06:09:29.905Z,3.10
2019-05-15T06:10:29.877Z,3.10
2019-05-15T06:11:29.864Z,3.10
2019-05-15T06:12:29.822Z,3.20
2019-05-15T06:13:29.801Z,2.90
2019-05-15T06:14:29.920Z,3.10
2019-05-15T06:15:29.939Z,3.10
2019-05-15T06:16:29.807Z,3.30
2019-05-15T06:17:29.912Z,3.30
2019-05-15T06:18:29.777Z,3.20
2019-05-15T06:19:31.477Z,3.50
2019-05-15T06:20:29.699Z,3.20
2019-05-15T06:21:29.703Z,3.50
2019-05-15T06:22:29.680Z,3.20
2019-05-15T06:23:34.558Z,2.80
2019-05-15T06:24:30.765Z,2.90
2019-05-15T06:25:30.635Z,3.10
2019-05-15T06:26:29.716Z,3.20
2019-05-15T06:27:29.628Z,3.20
2019-05-15T06:28:29.751Z,3.10
2019-05-15T06:29:29.636Z,3.10
2019-05-15T06:30:30.817Z,3.30
2019-05-15T06:31:29.608Z,3.20
2019-05-15T06:32:29.567Z,3.10
2019-05-15T06:33:29.592Z,3.70
2019-05-15T06:34:29.546Z,3.20
2019-05-15T06:35:31.167Z,3.10
2019-05-15T06:36:29.528Z,3.10
2019-05-15T06:37:29.530Z,2.70
2019-05-15T06:38:30.981Z,3.00
2019-05-15T06:39:29.485Z,2.80
2019-05-15T06:40:29.518Z,3.30
2019-05-15T06:41:29.486Z,2.80
2019-05-15T06:42:29.461Z,2.90
2019-05-15T06:43:29.450Z,3.40
2019-05-15T06:44:29.435Z,3.20
2019-05-15T06:45:29.482Z,2.80
2019-05-15T06:46:29.434Z,3.10
2019-05-15T06:47:29.411Z,3.10
2019-05-15T06:48:29.445Z,2.70
2019-05-15T06:49:29.395Z,2.70
2019-05-15T06:50:29.372Z,3.20
2019-05-15T06:51:29.409Z,3.30
2019-05-15T06:52:29.351Z,3.10
2019-05-15T06:53:29.332Z,2.90
2019-05-15T06:54:29.367Z,3.20
2019-05-15T06:55:29.347Z,2.80
2019-05-15T06:56:29.304Z,2.00
2019-05-15T06:57:29.325Z,2.00
2019-05-15T06:58:29.328Z,1.90
2019-05-15T06:59:29.291Z,1.70
2019-05-15T07:00:29.313Z,1.90
2019-05-15T07:01:29.574Z,1.90
2019-05-15T07:02:29.247Z,1.80
2019-05-15T07:03:29.680Z,2.10
2019-05-15T07:04:29.247Z,2.20
2019-05-15T07:05:29.548Z,2.00
2019-05-15T07:06:29.219Z,2.10
2019-05-15T07:07:29.184Z,1.70
2019-05-15T07:08:29.205Z,1.30
2019-05-15T07:09:29.171Z,1.30
2019-05-15T07:10:29.149Z,1.10
2019-05-15T07:11:29.173Z,1.20
2019-05-15T07:12:29.128Z,1.20
2019-05-15T07:13:29.250Z,1.30
2019-05-15T07:14:29.148Z,1.50
2019-05-15T07:15:29.096Z,1.60
2019-05-15T07:16:29.102Z,1.20
2019-05-15T07:17:29.083Z,1.00
2019-05-15T07:18:29.115Z,1.10
2019-05-15T07:19:29.053Z,1.00
2019-05-15T07:20:29.039Z,1.40
2019-05-15T07:21:29.023Z,1.10
2019-05-15T07:22:29.112Z,1.10
2019-05-15T07:23:30.761Z,0.90
2019-05-15T07:24:29.097Z,1.30
2019-05-15T07:25:29.443Z,1.20
2019-05-15T07:26:29.175Z,1.00
2019-05-15T07:27:28.974Z,1.10
2019-05-15T07:28:29.015Z,1.20
2019-05-15T07:29:29.229Z,1.10
2019-05-15T07:30:29.008Z,1.20
2019-05-15T07:31:29.011Z,1.10
2019-05-15T07:32:28.913Z,1.30
2019-05-15T07:33:39.414Z,1.10
2019-05-15T07:34:29.966Z,1.00
2019-05-15T07:35:28.916Z,1.00
2019-05-15T07:36:28.932Z,1.20
2019-05-15T07:37:29.060Z,1.00
2019-05-15T07:38:28.861Z,1.10
2019-05-15T07:39:29.013Z,1.30
2019-05-15T07:40:29.839Z,1.10
2019-05-15T07:41:28.815Z,1.00
2019-05-15T07:42:29.218Z,1.20
2019-05-15T07:43:28.815Z,1.00
2019-05-15T07:44:28.784Z,0.90
2019-05-15T07:45:28.792Z,1.10
2019-05-15T07:46:29.025Z,0.90
2019-05-15T07:47:29.338Z,1.30
2019-05-15T07:48:29.260Z,1.20
2019-05-15T07:49:28.968Z,1.30
2019-05-15T07:50:29.932Z,1.20
2019-05-15T07:51:28.862Z,1.10
2019-05-15T07:52:28.940Z,1.20
2019-05-15T07:53:29.004Z,1.10
2019-05-15T07:54:28.943Z,1.20
2019-05-15T07:55:29.742Z,1.20
2019-05-15T07:56:29.038Z,1.40
2019-05-15T07:57:29.878Z,1.10
2019-05-15T07:58:28.630Z,1.00
2019-05-15T07:59:28.604Z,0.90
2019-05-15T08:00:28.922Z,1.00
2019-05-15T08:01:29.070Z,1.30
2019-05-15T08:02:28.665Z,0.90
2019-05-15T08:03:29.238Z,0.90
2019-05-15T08:04:30.673Z,1.10
2019-05-15T08:05:28.627Z,1.20
2019-05-15T08:06:29.041Z,0.70
2019-05-15T08:07:28.532Z,1.10
2019-05-15T08:08:29.122Z,1.10
2019-05-15T08:09:28.529Z,1.00
2019-05-15T08:10:28.564Z,1.10
2019-05-15T08:11:28.718Z,1.20
2019-05-15T08:12:28.590Z,1.10
2019-05-15T08:13:28.960Z,1.10
2019-05-15T08:14:29.169Z,1.00
2019-05-15T08:15:28.682Z,1.10
2019-05-15T08:16:28.837Z,1.20
2019-05-15T08:17:29.028Z,1.20
2019-05-15T08:18:28.703Z,1.10
2019-05-15T08:19:28.951Z,0.80
2019-05-15T08:20:28.941Z,1.30
2019-05-15T08:21:29.238Z,1.20
2019-05-15T08:22:28.577Z,1.10
2019-05-15T08:23:28.578Z,1.00
2019-05-15T08:24:29.877Z,1.00
2019-05-15T08:25:35.047Z,1.30
2019-05-15T08:26:29.365Z,1.30
2019-05-15T08:27:29.931Z,1.10
2019-05-15T08:28:28.766Z,1.10
2019-05-15T08:29:28.881Z,1.30
2019-05-15T08:30:28.900Z,1.10
2019-05-15T08:31:28.922Z,1.00
2019-05-15T08:32:28.320Z,1.20
2019-05-15T08:33:28.260Z,1.10
2019-05-15T08:34:28.335Z,1.30
2019-05-15T08:35:29.163Z,1.20
2019-05-15T08:36:31.144Z,1.10
2019-05-15T08:37:29.294Z,0.90
2019-05-15T08:38:28.934Z,1.20
2019-05-15T08:39:28.539Z,1.10
2019-05-15T08:40:28.502Z,1.20
2019-05-15T08:41:29.561Z,1.20
2019-05-15T08:42:28.244Z,1.20
2019-05-15T08:43:30.910Z,1.20
2019-05-15T08:44:29.290Z,1.00
2019-05-15T08:45:28.357Z,1.30
2019-05-15T08:46:28.137Z,1.20
2019-05-15T08:47:29.718Z,1.10
2019-05-15T08:48:28.069Z,1.20
2019-05-15T08:49:28.442Z,1.30
2019-05-15T08:50:28.771Z,1.20
2019-05-15T08:51:28.481Z,1.00
2019-05-15T08:52:28.370Z,1.10
2019-05-15T08:53:28.534Z,1.30
2019-05-15T08:54:29.071Z,0.90
2019-05-15T08:55:28.194Z,1.40
2019-05-15T08:56:28.975Z,1.20
2019-05-15T08:57:29.048Z,1.20
2019-05-15T08:58:29.047Z,0.80
2019-05-15T08:59:29.438Z,1.30
2019-05-15T09:00:29.393Z,1.20
2019-05-15T09:01:28.754Z,1.10
2019-05-15T09:02:28.766Z,1.30
2019-05-15T09:03:28.660Z,1.10
2019-05-15T09:04:34.484Z,1.30
2019-05-15T09:05:28.894Z,1.10
2019-05-15T09:06:29.182Z,1.20
2019-05-15T09:07:28.779Z,1.00
2019-05-15T09:08:29.244Z,1.20
2019-05-15T09:09:28.764Z,1.00
2019-05-15T09:10:28.770Z,1.10
2019-05-15T09:11:28.358Z,0.80
2019-05-15T09:12:29.419Z,0.90
2019-05-15T09:13:29.317Z,0.90
2019-05-15T09:14:28.607Z,1.00
2019-05-15T09:15:29.373Z,1.10
2019-05-15T09:16:28.115Z,0.70
2019-05-15T09:17:28.558Z,0.80
2019-05-15T09:18:28.346Z,0.90
2019-05-15T09:19:28.169Z,0.70
2019-05-15T09:20:28.782Z,1.00
2019-05-15T09:21:28.360Z,0.80
2019-05-15T09:22:29.189Z,0.90
2019-05-15T09:23:28.945Z,0.90
2019-05-15T09:24:28.618Z,0.80
2019-05-15T09:25:28.775Z,0.80
2019-05-15T09:26:28.360Z,1.00
2019-05-15T09:27:27.922Z,0.90
2019-05-15T09:28:29.645Z,0.60
2019-05-15T09:29:28.560Z,0.70
2019-05-15T09:30:28.624Z,0.90
2019-05-15T09:31:28.468Z,0.70
2019-05-15T09:32:28.491Z,0.80
2019-05-15T09:33:28.594Z,0.70
2019-05-15T09:34:44.962Z,0.70
2019-05-15T09:35:28.601Z,0.70
2019-05-15T09:36:28.841Z,0.70
2019-05-15T09:37:28.718Z,0.70
2019-05-15T09:38:28.993Z,0.90
2019-05-15T09:39:28.685Z,0.80
2019-05-15T09:40:42.507Z,0.70
2019-05-15T09:41:28.760Z,0.90
2019-05-15T09:42:28.657Z,1.10
2019-05-15T09:43:28.571Z,0.80
2019-05-15T09:44:28.349Z,1.10
2019-05-15T09:45:28.624Z,0.90
2019-05-15T09:46:29.173Z,0.80
2019-05-15T09:47:29.662Z,0.80
2019-05-15T09:48:28.659Z,0.70
2019-05-15T09:49:28.555Z,0.80
2019-05-15T09:50:28.206Z,1.00
2019-05-15T09:51:29.034Z,1.10
2019-05-15T09:52:29.877Z,1.00
2019-05-15T09:53:28.510Z,0.80
2019-05-15T09:54:29.157Z,0.80
2019-05-15T09:55:28.503Z,0.80
2019-05-15T09:56:29.065Z,1.10
2019-05-15T09:57:30.242Z,1.10
2019-05-15T09:58:27.262Z,1.20
2019-05-15T09:59:28.172Z,1.40
2019-05-15T10:00:29.259Z,1.00
2019-05-15T10:01:28.515Z,0.90
2019-05-15T10:02:28.441Z,1.00
2019-05-15T10:03:28.187Z,0.80
2019-05-15T10:04:28.648Z,0.70
2019-05-15T10:05:28.094Z,0.70
2019-05-15T10:06:28.636Z,0.90
2019-05-15T10:07:28.526Z,1.00
2019-05-15T10:08:29.291Z,1.00
2019-05-15T10:09:28.455Z,1.00
2019-05-15T10:10:28.448Z,1.10
2019-05-15T10:11:28.931Z,0.80
2019-05-15T10:12:34.508Z,1.10
2019-05-15T10:13:28.955Z,0.90
2019-05-15T10:14:29.445Z,1.20
2019-05-15T10:15:27.073Z,1.00
2019-05-15T10:16:27.102Z,1.00
2019-05-15T10:17:29.106Z,1.10
2019-05-15T10:18:28.218Z,0.70
2019-05-15T10:19:29.042Z,0.80
2019-05-15T10:20:29.122Z,1.00
2019-05-15T10:21:32.165Z,1.00
2019-05-15T10:22:28.343Z,0.80
2019-05-15T10:23:29.213Z,0.90
2019-05-15T10:24:28.061Z,0.90
2019-05-15T10:25:28.158Z,0.80
2019-05-15T10:26:28.546Z,0.90
2019-05-15T10:27:28.741Z,1.00
2019-05-15T10:28:29.356Z,1.00
2019-05-15T10:29:28.174Z,1.10
2019-05-15T10:30:28.390Z,0.80
2019-05-15T10:31:28.280Z,0.90
2019-05-15T10:32:29.006Z,1.20
2019-05-15T10:33:29.435Z,1.00
2019-05-15T10:34:28.914Z,0.90
2019-05-15T10:35:29.227Z,0.80
2019-05-15T10:36:28.113Z,0.80
2019-05-15T10:37:28.562Z,0.90
2019-05-15T10:38:28.481Z,0.80
2019-05-15T10:39:28.826Z,0.90
2019-05-15T10:40:29.615Z,0.90
2019-05-15T10:41:28.183Z,1.10
2019-05-15T10:42:28.938Z,1.00
2019-05-15T10:43:28.793Z,0.90
2019-05-15T10:44:28.559Z,0.80
2019-05-15T10:45:29.358Z,1.00
2019-05-15T10:46:26.785Z,1.10
2019-05-15T10:47:28.973Z,1.10
2019-05-15T10:48:29.222Z,1.10
2019-05-15T10:49:28.178Z,0.90
2019-05-15T10:50:28.381Z,0.90
2019-05-15T10:51:28.594Z,1.00
2019-05-15T10:52:28.707Z,1.00
2019-05-15T10:53:29.523Z,1.00
2019-05-15T10:54:29.086Z,1.00
2019-05-15T10:55:28.780Z,1.00
2019-05-15T10:56:28.997Z,1.00
2019-05-15T10:57:28.046Z,0.90
2019-05-15T10:58:28.670Z,1.10
2019-05-15T10:59:27.669Z,1.10
2019-05-15T11:00:28.616Z,1.10
2019-05-15T11:01:26.592Z,1.00
2019-05-15T11:02:28.850Z,1.00
2019-05-15T11:03:26.544Z,1.10
2019-05-15T11:04:28.682Z,1.10
2019-05-15T11:05:38.405Z,1.00
2019-05-15T11:06:28.855Z,1.10
2019-05-15T11:07:28.435Z,1.10
2019-05-15T11:08:28.961Z,1.30
2019-05-15T11:09:28.490Z,1.10
2019-05-15T11:10:28.825Z,1.00
2019-05-15T11:11:26.455Z,0.90
2019-05-15T11:12:29.014Z,1.00
2019-05-15T11:13:28.673Z,1.10
2019-05-15T11:14:28.643Z,0.90
2019-05-15T11:15:28.941Z,1.20
2019-05-15T11:16:28.213Z,1.00
2019-05-15T11:17:28.721Z,1.10
2019-05-15T11:18:28.142Z,1.00
2019-05-15T11:19:35.484Z,0.90
2019-05-15T11:20:27.351Z,1.00
2019-05-15T11:21:27.272Z,1.00
2019-05-15T11:22:26.320Z,1.10
2019-05-15T11:23:26.297Z,0.90
2019-05-15T11:24:28.291Z,1.00
2019-05-15T11:25:29.933Z,1.20
2019-05-15T11:26:33.132Z,1.00
2019-05-15T11:27:27.933Z,1.10
2019-05-15T11:28:31.582Z,0.90
2019-05-15T11:29:27.251Z,1.10
2019-05-15T11:30:26.258Z,1.00
2019-05-15T11:31:28.475Z,1.40
2019-05-15T11:32:26.206Z,0.90
2019-05-15T11:33:29.022Z,1.00
2019-05-15T11:34:28.793Z,1.40
2019-05-15T11:35:28.436Z,1.20
2019-05-15T11:36:28.575Z,1.10
2019-05-15T11:37:28.272Z,0.90
2019-05-15T11:38:28.699Z,1.10
2019-05-15T11:39:28.651Z,1.00
2019-05-15T11:40:28.222Z,1.00
2019-05-15T11:41:29.179Z,1.00
2019-05-15T11:42:28.191Z,1.00
2019-05-15T11:43:28.903Z,1.00
2019-05-15T11:44:28.113Z,1.00
2019-05-15T11:45:26.121Z,1.00
2019-05-15T11:46:29.027Z,0.80
2019-05-15T11:47:27.870Z,1.00
2019-05-15T11:48:26.019Z,0.90
2019-05-15T11:49:26.015Z,1.00
2019-05-15T11:50:29.101Z,1.20
2019-05-15T11:51:26.026Z,0.90
2019-05-15T11:52:29.168Z,1.20
2019-05-15T11:53:28.226Z,1.20
2019-05-15T11:54:28.310Z,1.10
2019-05-15T11:55:25.949Z,0.90
2019-05-15T11:56:25.930Z,1.30
2019-05-15T11:57:39.245Z,1.10
2019-05-15T11:58:28.202Z,1.20
2019-05-15T11:59:25.939Z,1.20
2019-05-15T12:00:29.509Z,1.50
2019-05-15T12:01:25.891Z,1.10
2019-05-15T12:02:25.899Z,1.00
2019-05-15T12:03:25.932Z,0.90
2019-05-15T12:04:31.206Z,1.10
2019-05-15T12:05:28.781Z,1.00
2019-05-15T12:06:25.853Z,1.10
2019-05-15T12:07:25.835Z,1.20
2019-05-15T12:08:25.868Z,1.10
2019-05-15T12:09:28.156Z,1.10
2019-05-15T12:10:25.854Z,1.10
2019-05-15T12:11:33.374Z,1.20
2019-05-15T12:12:31.269Z,1.10
2019-05-15T12:13:27.976Z,1.20
2019-05-15T12:14:25.844Z,1.10
2019-05-15T12:15:27.985Z,1.20
2019-05-15T12:16:28.786Z,1.30
2019-05-15T12:17:28.282Z,1.10
2019-05-15T12:18:27.934Z,1.10
2019-05-15T12:19:28.961Z,1.10
2019-05-15T12:20:28.367Z,0.90
2019-05-15T12:21:28.403Z,1.20
2019-05-15T12:22:25.664Z,0.90
2019-05-15T12:23:25.675Z,1.10
2019-05-15T12:24:32.719Z,0.90
2019-05-15T12:25:31.025Z,0.90
2019-05-15T12:26:29.221Z,0.80
2019-05-15T12:27:28.152Z,1.00
2019-05-15T12:28:25.587Z,1.00
2019-05-15T12:29:28.379Z,1.10
2019-05-15T12:30:25.557Z,1.20
2019-05-15T12:31:25.539Z,1.10
2019-05-15T12:32:31.435Z,1.00
2019-05-15T12:33:28.894Z,1.00
2019-05-15T12:34:25.550Z,1.20
2019-05-15T12:35:25.521Z,1.30
2019-05-15T12:36:47.268Z,1.00
2019-05-15T12:37:28.514Z,1.10
2019-05-15T12:38:25.465Z,1.00
2019-05-15T12:39:29.505Z,0.80
2019-05-15T12:59:42.435Z,0.90
2019-05-15T13:00:26.227Z,0.90
2019-05-15T13:01:25.220Z,0.90
2019-05-15T13:02:25.231Z,1.10
2019-05-15T13:03:25.208Z,1.00
2019-05-15T13:04:25.220Z,1.00
2019-05-15T13:05:25.174Z,0.90
2019-05-15T13:06:25.175Z,0.90
2019-05-15T13:07:25.146Z,1.20
2019-05-15T13:08:25.141Z,0.90
2019-05-15T13:09:25.113Z,1.20
2019-05-15T13:10:25.158Z,1.00
2019-05-15T13:11:25.100Z,0.90
2019-05-15T13:12:25.093Z,0.80
2019-05-15T13:13:25.085Z,0.90
2019-05-15T13:14:25.075Z,1.00
2019-05-15T13:15:25.078Z,0.90
2019-05-15T13:16:25.066Z,1.10
2019-05-15T13:17:25.039Z,1.10
2019-05-15T13:18:25.017Z,0.90
2019-05-15T13:19:25.058Z,1.10
2019-05-15T13:20:24.994Z,1.40
2019-05-15T13:21:24.984Z,0.90
2019-05-15T13:22:24.980Z,0.90
2019-05-15T13:23:24.994Z,1.00
2019-05-15T13:24:24.956Z,1.00
2019-05-15T13:25:24.956Z,1.10
2019-05-15T13:26:27.058Z,0.90
2019-05-15T13:27:24.933Z,0.80
2019-05-15T13:28:24.899Z,1.10
2019-05-15T13:29:24.909Z,1.00
2019-05-15T13:30:24.888Z,0.90
2019-05-15T13:31:24.921Z,0.80
2019-05-15T13:32:24.878Z,0.90
2019-05-15T13:33:24.853Z,1.10
2019-05-15T13:34:24.843Z,1.00
2019-05-15T13:35:24.835Z,0.90
2019-05-15T13:36:24.820Z,0.80
2019-05-15T13:37:27.262Z,0.80
2019-05-15T13:38:25.798Z,1.00
2019-05-15T13:39:24.780Z,1.10
2019-05-15T13:40:35.013Z,1.00
2019-05-15T13:41:28.010Z,1.00
2019-05-15T13:42:24.754Z,1.00
2019-05-15T13:43:24.773Z,0.90
2019-05-15T13:44:24.742Z,1.10
2019-05-15T13:45:24.726Z,1.00
2019-05-15T13:46:24.730Z,0.80
2019-05-15T13:47:24.694Z,1.00
2019-05-15T13:48:24.897Z,1.10
2019-05-15T13:49:24.708Z,1.10
2019-05-15T13:50:24.812Z,1.00
2019-05-15T13:51:24.666Z,0.90
2019-05-15T13:52:24.656Z,1.00
2019-05-15T13:53:24.660Z,1.20
2019-05-15T13:54:24.626Z,0.90
2019-05-15T13:55:26.051Z,1.00
2019-05-15T13:56:24.706Z,1.20
2019-05-15T13:57:24.603Z,0.90
2019-05-15T13:58:24.582Z,0.80
2019-05-15T13:59:24.574Z,0.90
2019-05-15T14:00:24.569Z,1.20
2019-05-15T14:01:24.568Z,1.10
2019-05-15T14:02:24.529Z,1.10
2019-05-15T14:03:24.527Z,1.20
2019-05-15T14:04:24.546Z,0.90
2019-05-15T14:05:24.496Z,1.00
2019-05-15T14:06:24.501Z,1.30
2019-05-15T14:07:24.519Z,1.10
2019-05-15T14:08:24.460Z,1.20
2019-05-15T14:09:24.497Z,0.90
2019-05-15T14:10:24.451Z,1.10
2019-05-15T14:11:24.439Z,1.20
2019-05-15T14:12:24.430Z,1.10
2019-05-15T14:13:24.450Z,1.00
2019-05-15T14:14:24.405Z,1.00
2019-05-15T14:15:24.415Z,1.00
2019-05-15T14:16:24.401Z,1.20
2019-05-15T14:17:24.373Z,1.20
2019-05-15T14:18:24.363Z,0.90
2019-05-15T14:19:24.425Z,1.10
2019-05-15T14:20:24.334Z,1.10
2019-05-15T14:21:24.389Z,0.90
2019-05-15T14:22:24.345Z,1.00
2019-05-15T14:23:24.308Z,1.10
2019-05-15T14:24:24.287Z,0.90
2019-05-15T14:25:24.278Z,1.00
2019-05-15T14:26:24.306Z,1.10
2019-05-15T14:27:24.317Z,1.10
2019-05-15T14:28:24.268Z,1.10
2019-05-15T14:29:24.236Z,1.20
2019-05-15T14:30:24.225Z,1.10
2019-05-15T14:31:24.215Z,1.00
2019-05-15T14:32:35.424Z,1.00
2019-05-15T14:33:25.242Z,1.10
2019-05-15T14:34:24.176Z,1.10
2019-05-15T14:35:24.186Z,1.10
2019-05-15T14:36:24.155Z,1.00
2019-05-15T14:37:24.183Z,1.10
2019-05-15T14:38:24.135Z,1.20
2019-05-15T14:39:24.161Z,1.00
2019-05-15T14:40:24.132Z,0.90
2019-05-15T14:41:24.144Z,0.90
2019-05-15T14:42:24.106Z,1.00
2019-05-15T14:43:24.088Z,0.90
2019-05-15T14:44:24.095Z,0.90
2019-05-15T14:45:24.061Z,1.00
2019-05-15T14:46:24.094Z,1.10
2019-05-15T14:47:26.341Z,0.90
2019-05-15T14:48:24.025Z,1.50
2019-05-15T14:49:24.042Z,1.00
2019-05-15T14:50:24.013Z,0.90
2019-05-15T14:51:24.042Z,1.10
2019-05-15T14:52:24.022Z,1.10
2019-05-15T14:53:23.967Z,0.90
2019-05-15T14:54:23.977Z,1.10
2019-05-15T14:55:23.959Z,1.20
2019-05-15T14:56:23.960Z,1.20
2019-05-15T14:57:23.980Z,1.10
2019-05-15T14:58:23.922Z,1.00
2019-05-15T14:59:23.915Z,1.20
2019-05-15T15:00:28.623Z,1.00
2019-05-15T15:01:24.905Z,1.00
2019-05-15T15:02:23.896Z,1.40
2019-05-15T15:03:23.921Z,1.10
2019-05-15T15:04:23.876Z,1.10
2019-05-15T15:05:23.866Z,1.20
2019-05-15T15:06:23.840Z,1.10
2019-05-15T15:07:23.861Z,1.20
2019-05-15T15:08:25.344Z,1.10
2019-05-15T15:09:23.856Z,1.30
2019-05-15T15:10:23.801Z,1.20
2019-05-15T15:11:24.110Z,1.30
2019-05-15T15:12:23.772Z,1.20
2019-05-15T15:13:23.768Z,1.00
2019-05-15T15:14:23.804Z,1.00
2019-05-15T15:15:23.776Z,0.90
2019-05-15T15:16:23.739Z,1.20
2019-05-15T15:17:23.727Z,1.10
2019-05-15T15:18:23.710Z,1.10
2019-05-15T15:19:23.705Z,1.00
2019-05-15T15:20:23.688Z,1.40
2019-05-15T15:21:23.768Z,1.20
2019-05-15T15:22:23.675Z,1.30
2019-05-15T15:23:23.692Z,1.20
2019-05-15T15:24:23.657Z,1.00
2019-05-15T15:25:23.633Z,1.30
2019-05-15T15:26:23.627Z,1.20
2019-05-15T15:27:23.643Z,1.30
2019-05-15T15:28:23.605Z,1.10
2019-05-15T15:29:23.579Z,1.10
2019-05-15T15:30:23.596Z,1.20
2019-05-15T15:31:23.617Z,1.10
2019-05-15T15:32:23.558Z,1.40
2019-05-15T15:33:23.548Z,1.00
2019-05-15T15:34:23.585Z,1.00
2019-05-15T15:35:23.533Z,1.30
2019-05-15T15:36:23.513Z,1.40
2019-05-15T15:37:23.536Z,1.60
2019-05-15T15:38:37.539Z,1.10
2019-05-15T15:39:24.495Z,1.50
2019-05-15T15:40:23.465Z,1.30
2019-05-15T15:41:23.456Z,1.30
2019-05-15T15:42:23.474Z,1.20